sensor_id;sensor_type;location;lat;lon;timestamp;P1;durP1;ratioP1;P2;durP2;ratioP2
35576;SDS011;21680;52.400;16.920;2023-12-28T00:00:10;42.20;;;13.90;;
35576;SDS011;21680;52.400;16.920;2023-12-28T00:02:35;39.60;;;12.50;;
35576;SDS011;21680;52.400;16.920;2023-12-28T00:05:00;43.00;;;13.50;;
35576;SDS011;21680;52.400;16.920;2023-12-28T00:07:27;40.10;;;13.10;;
35576;SDS011;21680;52.400;16.920;2023-12-28T00:09:52;33.70;;;13.70;;
35576;SDS011;21680;52.400;16.920;2023-12-28T00:12:19;41.00;;;13.30;;
35576;SDS011;21680;52.400;16.920;2023-12-28T00:14:44;38.60;;;13.30;;
35576;SDS011;21680;52.400;16.920;2023-12-28T00:17:09;38.20;;;12.70;;
35576;SDS011;21680;52.400;16.920;2023-12-28T00:19:34;38.30;;;12.40;;
35576;SDS011;21680;52.400;16.920;2023-12-28T00:22:00;34.10;;;11.60;;
35576;SDS011;21680;52.400;16.920;2023-12-28T00:24:26;35.20;;;11.90;;
35576;SDS011;21680;52.400;16.920;2023-12-28T00:26:52;31.60;;;11.60;;
35576;SDS011;21680;52.400;16.920;2023-12-28T00:29:17;41.90;;;13.60;;
35576;SDS011;21680;52.400;16.920;2023-12-28T00:31:42;35.80;;;13.30;;
35576;SDS011;21680;52.400;16.920;2023-12-28T00:34:07;38.50;;;12.80;;
35576;SDS011;21680;52.400;16.920;2023-12-28T00:36:33;31.00;;;11.50;;
35576;SDS011;21680;52.400;16.920;2023-12-28T00:38:58;42.30;;;13.10;;
35576;SDS011;21680;52.400;16.920;2023-12-28T00:41:23;29.00;;;11.30;;
35576;SDS011;21680;52.400;16.920;2023-12-28T00:43:49;38.80;;;12.70;;
35576;SDS011;21680;52.400;16.920;2023-12-28T00:46:14;34.30;;;11.50;;
35576;SDS011;21680;52.400;16.920;2023-12-28T00:48:39;37.50;;;12.60;;
35576;SDS011;21680;52.400;16.920;2023-12-28T00:51:04;34.90;;;11.60;;
35576;SDS011;21680;52.400;16.920;2023-12-28T00:53:30;35.00;;;11.00;;
35576;SDS011;21680;52.400;16.920;2023-12-28T00:55:56;29.60;;;10.10;;
35576;SDS011;21680;52.400;16.920;2023-12-28T00:58:21;37.20;;;12.20;;
35576;SDS011;21680;52.400;16.920;2023-12-28T01:00:46;36.50;;;11.60;;
35576;SDS011;21680;52.400;16.920;2023-12-28T01:03:12;31.90;;;11.10;;
35576;SDS011;21680;52.400;16.920;2023-12-28T01:05:37;37.30;;;11.30;;
35576;SDS011;21680;52.400;16.920;2023-12-28T01:08:02;38.00;;;11.80;;
35576;SDS011;21680;52.400;16.920;2023-12-28T01:10:27;40.20;;;11.30;;
35576;SDS011;21680;52.400;16.920;2023-12-28T01:12:53;26.90;;;10.60;;
35576;SDS011;21680;52.400;16.920;2023-12-28T01:15:18;33.20;;;10.30;;
35576;SDS011;21680;52.400;16.920;2023-12-28T01:17:45;28.90;;;10.70;;
35576;SDS011;21680;52.400;16.920;2023-12-28T01:20:10;33.90;;;10.50;;
35576;SDS011;21680;52.400;16.920;2023-12-28T01:22:36;34.80;;;10.90;;
35576;SDS011;21680;52.400;16.920;2023-12-28T01:25:02;34.90;;;10.70;;
35576;SDS011;21680;52.400;16.920;2023-12-28T01:27:28;30.20;;;10.50;;
35576;SDS011;21680;52.400;16.920;2023-12-28T01:29:53;31.30;;;10.90;;
35576;SDS011;21680;52.400;16.920;2023-12-28T01:32:19;32.90;;;10.40;;
35576;SDS011;21680;52.400;16.920;2023-12-28T01:34:44;31.30;;;10.30;;
35576;SDS011;21680;52.400;16.920;2023-12-28T01:37:10;27.30;;;9.20;;
35576;SDS011;21680;52.400;16.920;2023-12-28T01:39:35;30.50;;;9.40;;
35576;SDS011;21680;52.400;16.920;2023-12-28T01:42:00;31.60;;;10.00;;
35576;SDS011;21680;52.400;16.920;2023-12-28T01:44:26;35.10;;;9.80;;
35576;SDS011;21680;52.400;16.920;2023-12-28T01:46:51;23.00;;;8.60;;
35576;SDS011;21680;52.400;16.920;2023-12-28T01:49:17;29.60;;;10.70;;
35576;SDS011;21680;52.400;16.920;2023-12-28T01:51:42;27.40;;;8.90;;
35576;SDS011;21680;52.400;16.920;2023-12-28T01:54:09;28.20;;;9.60;;
35576;SDS011;21680;52.400;16.920;2023-12-28T01:56:35;29.30;;;9.00;;
35576;SDS011;21680;52.400;16.920;2023-12-28T01:59:02;26.10;;;8.90;;
35576;SDS011;21680;52.400;16.920;2023-12-28T02:01:27;29.80;;;9.10;;
35576;SDS011;21680;52.400;16.920;2023-12-28T02:03:52;23.20;;;9.10;;
35576;SDS011;21680;52.400;16.920;2023-12-28T02:06:19;27.90;;;8.80;;
35576;SDS011;21680;52.400;16.920;2023-12-28T02:08:48;27.20;;;8.60;;
35576;SDS011;21680;52.400;16.920;2023-12-28T02:11:13;24.50;;;7.90;;
35576;SDS011;21680;52.400;16.920;2023-12-28T02:13:39;26.70;;;8.70;;
35576;SDS011;21680;52.400;16.920;2023-12-28T02:19:18;21.00;;;8.20;;
35576;SDS011;21680;52.400;16.920;2023-12-28T02:22:05;23.10;;;8.70;;
35576;SDS011;21680;52.400;16.920;2023-12-28T02:24:48;24.60;;;9.90;;
35576;SDS011;21680;52.400;16.920;2023-12-28T02:27:16;25.80;;;8.50;;
35576;SDS011;21680;52.400;16.920;2023-12-28T02:29:41;18.60;;;7.90;;
35576;SDS011;21680;52.400;16.920;2023-12-28T02:32:06;23.70;;;7.30;;
35576;SDS011;21680;52.400;16.920;2023-12-28T02:34:36;26.70;;;8.00;;
35576;SDS011;21680;52.400;16.920;2023-12-28T02:37:05;25.50;;;8.20;;
35576;SDS011;21680;52.400;16.920;2023-12-28T02:39:31;26.20;;;8.80;;
35576;SDS011;21680;52.400;16.920;2023-12-28T02:41:58;22.20;;;8.20;;
35576;SDS011;21680;52.400;16.920;2023-12-28T02:44:23;18.80;;;8.10;;
35576;SDS011;21680;52.400;16.920;2023-12-28T02:46:48;21.50;;;7.90;;
35576;SDS011;21680;52.400;16.920;2023-12-28T02:49:13;29.20;;;8.40;;
35576;SDS011;21680;52.400;16.920;2023-12-28T02:51:40;21.60;;;8.10;;
35576;SDS011;21680;52.400;16.920;2023-12-28T02:54:07;20.00;;;7.40;;
35576;SDS011;21680;52.400;16.920;2023-12-28T02:56:33;17.30;;;7.80;;
35576;SDS011;21680;52.400;16.920;2023-12-28T02:58:58;19.60;;;7.50;;
35576;SDS011;21680;52.400;16.920;2023-12-28T03:01:24;23.10;;;9.00;;
35576;SDS011;21680;52.400;16.920;2023-12-28T03:03:49;27.00;;;9.20;;
35576;SDS011;21680;52.400;16.920;2023-12-28T03:06:14;27.30;;;8.70;;
35576;SDS011;21680;52.400;16.920;2023-12-28T03:08:39;20.00;;;8.10;;
35576;SDS011;21680;52.400;16.920;2023-12-28T03:11:05;23.80;;;8.50;;
35576;SDS011;21680;52.400;16.920;2023-12-28T03:13:30;26.50;;;9.40;;
35576;SDS011;21680;52.400;16.920;2023-12-28T03:15:56;27.90;;;9.00;;
35576;SDS011;21680;52.400;16.920;2023-12-28T03:18:22;22.00;;;9.50;;
35576;SDS011;21680;52.400;16.920;2023-12-28T03:20:47;19.80;;;9.20;;
35576;SDS011;21680;52.400;16.920;2023-12-28T03:23:12;21.60;;;8.30;;
35576;SDS011;21680;52.400;16.920;2023-12-28T03:25:38;25.70;;;9.20;;
35576;SDS011;21680;52.400;16.920;2023-12-28T03:28:03;22.30;;;8.10;;
35576;SDS011;21680;52.400;16.920;2023-12-28T03:30:28;22.10;;;8.60;;
35576;SDS011;21680;52.400;16.920;2023-12-28T03:32:54;20.30;;;8.50;;
35576;SDS011;21680;52.400;16.920;2023-12-28T03:35:19;20.20;;;8.70;;
35576;SDS011;21680;52.400;16.920;2023-12-28T03:37:44;17.80;;;7.60;;
35576;SDS011;21680;52.400;16.920;2023-12-28T03:40:10;18.10;;;8.20;;
35576;SDS011;21680;52.400;16.920;2023-12-28T03:42:37;23.00;;;8.40;;
35576;SDS011;21680;52.400;16.920;2023-12-28T03:45:03;19.30;;;8.20;;
35576;SDS011;21680;52.400;16.920;2023-12-28T03:47:29;20.30;;;8.60;;
35576;SDS011;21680;52.400;16.920;2023-12-28T03:49:54;22.70;;;8.20;;
35576;SDS011;21680;52.400;16.920;2023-12-28T03:52:21;24.10;;;9.20;;
35576;SDS011;21680;52.400;16.920;2023-12-28T03:54:47;18.30;;;8.60;;
35576;SDS011;21680;52.400;16.920;2023-12-28T03:57:12;22.60;;;8.50;;
35576;SDS011;21680;52.400;16.920;2023-12-28T03:59:39;25.20;;;8.80;;
35576;SDS011;21680;52.400;16.920;2023-12-28T04:02:04;23.80;;;8.80;;
35576;SDS011;21680;52.400;16.920;2023-12-28T04:04:30;25.50;;;8.50;;
35576;SDS011;21680;52.400;16.920;2023-12-28T04:06:55;21.90;;;8.40;;
35576;SDS011;21680;52.400;16.920;2023-12-28T04:09:20;19.80;;;9.10;;
35576;SDS011;21680;52.400;16.920;2023-12-28T04:11:46;20.90;;;7.80;;
35576;SDS011;21680;52.400;16.920;2023-12-28T04:14:12;22.50;;;8.80;;
35576;SDS011;21680;52.400;16.920;2023-12-28T04:16:37;18.20;;;7.80;;
35576;SDS011;21680;52.400;16.920;2023-12-28T04:19:03;22.70;;;9.30;;
35576;SDS011;21680;52.400;16.920;2023-12-28T04:21:28;23.90;;;8.60;;
35576;SDS011;21680;52.400;16.920;2023-12-28T04:23:53;22.10;;;8.70;;
35576;SDS011;21680;52.400;16.920;2023-12-28T04:26:18;18.80;;;8.60;;
35576;SDS011;21680;52.400;16.920;2023-12-28T04:28:45;22.70;;;9.00;;
35576;SDS011;21680;52.400;16.920;2023-12-28T04:31:11;18.40;;;8.20;;
35576;SDS011;21680;52.400;16.920;2023-12-28T04:33:36;20.80;;;8.50;;
35576;SDS011;21680;52.400;16.920;2023-12-28T04:36:02;19.70;;;7.60;;
35576;SDS011;21680;52.400;16.920;2023-12-28T04:38:29;16.00;;;7.30;;
35576;SDS011;21680;52.400;16.920;2023-12-28T04:40:55;16.00;;;7.00;;
35576;SDS011;21680;52.400;16.920;2023-12-28T04:43:20;20.30;;;7.20;;
35576;SDS011;21680;52.400;16.920;2023-12-28T04:45:48;21.30;;;8.20;;
35576;SDS011;21680;52.400;16.920;2023-12-28T04:48:14;18.80;;;7.80;;
35576;SDS011;21680;52.400;16.920;2023-12-28T04:50:39;21.50;;;8.30;;
35576;SDS011;21680;52.400;16.920;2023-12-28T04:53:04;18.70;;;8.60;;
35576;SDS011;21680;52.400;16.920;2023-12-28T04:55:30;22.00;;;8.10;;
35576;SDS011;21680;52.400;16.920;2023-12-28T04:57:56;25.20;;;8.60;;
35576;SDS011;21680;52.400;16.920;2023-12-28T05:00:21;19.10;;;8.20;;
35576;SDS011;21680;52.400;16.920;2023-12-28T05:02:46;19.80;;;7.20;;
35576;SDS011;21680;52.400;16.920;2023-12-28T05:05:12;22.90;;;8.20;;
35576;SDS011;21680;52.400;16.920;2023-12-28T05:07:37;15.40;;;6.50;;
35576;SDS011;21680;52.400;16.920;2023-12-28T05:10:03;19.30;;;7.60;;
35576;SDS011;21680;52.400;16.920;2023-12-28T05:12:28;16.10;;;6.50;;
35576;SDS011;21680;52.400;16.920;2023-12-28T05:14:54;17.70;;;7.10;;
35576;SDS011;21680;52.400;16.920;2023-12-28T05:17:19;20.50;;;7.30;;
35576;SDS011;21680;52.400;16.920;2023-12-28T05:19:44;17.30;;;6.20;;
35576;SDS011;21680;52.400;16.920;2023-12-28T05:22:09;17.10;;;7.50;;
35576;SDS011;21680;52.400;16.920;2023-12-28T05:24:36;16.90;;;6.90;;
35576;SDS011;21680;52.400;16.920;2023-12-28T05:27:01;22.10;;;7.80;;
35576;SDS011;21680;52.400;16.920;2023-12-28T05:29:27;17.20;;;6.40;;
35576;SDS011;21680;52.400;16.920;2023-12-28T05:31:52;13.20;;;5.70;;
35576;SDS011;21680;52.400;16.920;2023-12-28T05:34:17;20.80;;;6.60;;
35576;SDS011;21680;52.400;16.920;2023-12-28T05:36:43;17.50;;;6.40;;
35576;SDS011;21680;52.400;16.920;2023-12-28T05:39:10;14.90;;;6.20;;
35576;SDS011;21680;52.400;16.920;2023-12-28T05:41:38;12.80;;;5.80;;
35576;SDS011;21680;52.400;16.920;2023-12-28T05:44:04;13.50;;;5.80;;
35576;SDS011;21680;52.400;16.920;2023-12-28T05:46:29;13.20;;;5.40;;
35576;SDS011;21680;52.400;16.920;2023-12-28T05:48:55;11.60;;;5.00;;
35576;SDS011;21680;52.400;16.920;2023-12-28T05:51:20;12.40;;;5.10;;
35576;SDS011;21680;52.400;16.920;2023-12-28T05:53:46;11.00;;;4.00;;
35576;SDS011;21680;52.400;16.920;2023-12-28T05:56:11;12.10;;;4.60;;
35576;SDS011;21680;52.400;16.920;2023-12-28T05:58:36;10.10;;;4.40;;
35576;SDS011;21680;52.400;16.920;2023-12-28T06:01:03;12.50;;;6.10;;
35576;SDS011;21680;52.400;16.920;2023-12-28T06:03:32;11.20;;;4.50;;
35576;SDS011;21680;52.400;16.920;2023-12-28T06:05:58;10.30;;;4.00;;
35576;SDS011;21680;52.400;16.920;2023-12-28T06:08:23;14.10;;;4.90;;
35576;SDS011;21680;52.400;16.920;2023-12-28T06:10:49;11.10;;;4.90;;
35576;SDS011;21680;52.400;16.920;2023-12-28T06:13:14;15.50;;;4.60;;
35576;SDS011;21680;52.400;16.920;2023-12-28T06:15:40;14.90;;;4.90;;
35576;SDS011;21680;52.400;16.920;2023-12-28T06:18:05;11.80;;;4.70;;
35576;SDS011;21680;52.400;16.920;2023-12-28T06:20:30;10.80;;;4.20;;
35576;SDS011;21680;52.400;16.920;2023-12-28T06:22:55;10.50;;;4.30;;
35576;SDS011;21680;52.400;16.920;2023-12-28T06:25:21;12.20;;;4.50;;
35576;SDS011;21680;52.400;16.920;2023-12-28T06:27:46;15.30;;;4.40;;
35576;SDS011;21680;52.400;16.920;2023-12-28T06:30:11;13.50;;;4.40;;
35576;SDS011;21680;52.400;16.920;2023-12-28T06:32:37;15.00;;;4.70;;
35576;SDS011;21680;52.400;16.920;2023-12-28T06:35:03;12.90;;;4.30;;
35576;SDS011;21680;52.400;16.920;2023-12-28T06:37:28;12.70;;;4.80;;
35576;SDS011;21680;52.400;16.920;2023-12-28T06:39:53;10.40;;;4.70;;
35576;SDS011;21680;52.400;16.920;2023-12-28T06:42:19;10.30;;;4.10;;
35576;SDS011;21680;52.400;16.920;2023-12-28T06:44:44;8.30;;;4.50;;
35576;SDS011;21680;52.400;16.920;2023-12-28T06:47:09;13.00;;;4.70;;
35576;SDS011;21680;52.400;16.920;2023-12-28T06:49:35;11.00;;;3.90;;
35576;SDS011;21680;52.400;16.920;2023-12-28T06:52:00;12.90;;;5.20;;
35576;SDS011;21680;52.400;16.920;2023-12-28T06:54:25;8.80;;;3.60;;
35576;SDS011;21680;52.400;16.920;2023-12-28T06:56:50;11.10;;;4.90;;
35576;SDS011;21680;52.400;16.920;2023-12-28T06:59:16;9.90;;;4.40;;
35576;SDS011;21680;52.400;16.920;2023-12-28T07:01:42;12.00;;;5.00;;
35576;SDS011;21680;52.400;16.920;2023-12-28T07:04:09;16.00;;;4.10;;
35576;SDS011;21680;52.400;16.920;2023-12-28T07:06:34;12.50;;;4.00;;
35576;SDS011;21680;52.400;16.920;2023-12-28T07:08:59;8.30;;;4.10;;
35576;SDS011;21680;52.400;16.920;2023-12-28T07:11:25;8.80;;;3.70;;
35576;SDS011;21680;52.400;16.920;2023-12-28T07:13:51;7.50;;;3.50;;
35576;SDS011;21680;52.400;16.920;2023-12-28T07:16:17;10.70;;;3.60;;
35576;SDS011;21680;52.400;16.920;2023-12-28T07:18:42;9.80;;;4.20;;
35576;SDS011;21680;52.400;16.920;2023-12-28T07:21:07;9.00;;;4.00;;
35576;SDS011;21680;52.400;16.920;2023-12-28T07:23:36;8.50;;;4.30;;
35576;SDS011;21680;52.400;16.920;2023-12-28T07:26:02;9.00;;;4.00;;
35576;SDS011;21680;52.400;16.920;2023-12-28T07:28:27;10.20;;;4.30;;
35576;SDS011;21680;52.400;16.920;2023-12-28T07:30:53;9.50;;;3.90;;
35576;SDS011;21680;52.400;16.920;2023-12-28T07:33:18;10.80;;;3.90;;
35576;SDS011;21680;52.400;16.920;2023-12-28T07:35:44;9.90;;;4.40;;
35576;SDS011;21680;52.400;16.920;2023-12-28T07:38:09;17.40;;;4.30;;
35576;SDS011;21680;52.400;16.920;2023-12-28T07:40:34;10.30;;;3.80;;
35576;SDS011;21680;52.400;16.920;2023-12-28T07:43:00;11.40;;;4.40;;
35576;SDS011;21680;52.400;16.920;2023-12-28T07:45:26;10.90;;;4.20;;
35576;SDS011;21680;52.400;16.920;2023-12-28T07:47:52;11.90;;;5.00;;
35576;SDS011;21680;52.400;16.920;2023-12-28T07:50:18;7.30;;;3.30;;
35576;SDS011;21680;52.400;16.920;2023-12-28T07:52:44;8.30;;;3.60;;
35576;SDS011;21680;52.400;16.920;2023-12-28T07:55:11;12.40;;;3.90;;
35576;SDS011;21680;52.400;16.920;2023-12-28T07:57:36;11.80;;;4.40;;
35576;SDS011;21680;52.400;16.920;2023-12-28T08:00:02;9.60;;;4.00;;
35576;SDS011;21680;52.400;16.920;2023-12-28T08:02:27;13.80;;;6.00;;
35576;SDS011;21680;52.400;16.920;2023-12-28T08:04:52;16.30;;;6.70;;
35576;SDS011;21680;52.400;16.920;2023-12-28T08:07:18;35.60;;;13.80;;
35576;SDS011;21680;52.400;16.920;2023-12-28T08:09:44;37.60;;;15.30;;
35576;SDS011;21680;52.400;16.920;2023-12-28T08:12:09;63.60;;;26.10;;
35576;SDS011;21680;52.400;16.920;2023-12-28T08:14:34;58.30;;;23.60;;
35576;SDS011;21680;52.400;16.920;2023-12-28T08:17:00;46.10;;;17.70;;
35576;SDS011;21680;52.400;16.920;2023-12-28T08:19:25;29.30;;;13.20;;
35576;SDS011;21680;52.400;16.920;2023-12-28T08:21:50;27.40;;;11.10;;
35576;SDS011;21680;52.400;16.920;2023-12-28T08:24:15;17.30;;;7.80;;
35576;SDS011;21680;52.400;16.920;2023-12-28T08:26:41;14.60;;;6.80;;
35576;SDS011;21680;52.400;16.920;2023-12-28T08:29:06;15.40;;;6.00;;
35576;SDS011;21680;52.400;16.920;2023-12-28T08:31:32;12.70;;;5.50;;
35576;SDS011;21680;52.400;16.920;2023-12-28T08:33:58;14.40;;;5.40;;
35576;SDS011;21680;52.400;16.920;2023-12-28T08:36:23;10.10;;;4.10;;
35576;SDS011;21680;52.400;16.920;2023-12-28T08:38:48;16.40;;;5.90;;
35576;SDS011;21680;52.400;16.920;2023-12-28T08:41:20;15.30;;;5.90;;
35576;SDS011;21680;52.400;16.920;2023-12-28T08:43:52;16.10;;;5.90;;
35576;SDS011;21680;52.400;16.920;2023-12-28T08:46:19;13.30;;;5.50;;
35576;SDS011;21680;52.400;16.920;2023-12-28T08:48:44;21.70;;;5.30;;
35576;SDS011;21680;52.400;16.920;2023-12-28T08:51:10;15.60;;;6.00;;
35576;SDS011;21680;52.400;16.920;2023-12-28T08:53:36;18.60;;;7.30;;
35576;SDS011;21680;52.400;16.920;2023-12-28T08:56:12;17.20;;;5.70;;
35576;SDS011;21680;52.400;16.920;2023-12-28T08:58:41;13.00;;;5.50;;
35576;SDS011;21680;52.400;16.920;2023-12-28T09:01:07;12.10;;;5.90;;
35576;SDS011;21680;52.400;16.920;2023-12-28T09:03:32;12.40;;;5.70;;
35576;SDS011;21680;52.400;16.920;2023-12-28T09:05:57;12.60;;;5.40;;
35576;SDS011;21680;52.400;16.920;2023-12-28T09:08:23;14.60;;;5.90;;
35576;SDS011;21680;52.400;16.920;2023-12-28T09:10:48;9.30;;;4.80;;
35576;SDS011;21680;52.400;16.920;2023-12-28T09:13:16;13.80;;;6.00;;
35576;SDS011;21680;52.400;16.920;2023-12-28T09:15:42;13.30;;;6.00;;
35576;SDS011;21680;52.400;16.920;2023-12-28T09:18:08;20.50;;;5.80;;
35576;SDS011;21680;52.400;16.920;2023-12-28T09:20:33;14.50;;;5.10;;
35576;SDS011;21680;52.400;16.920;2023-12-28T09:23:00;11.30;;;5.40;;
35576;SDS011;21680;52.400;16.920;2023-12-28T09:25:26;12.20;;;5.10;;
35576;SDS011;21680;52.400;16.920;2023-12-28T09:27:51;12.30;;;5.70;;
35576;SDS011;21680;52.400;16.920;2023-12-28T09:30:16;12.10;;;4.70;;
35576;SDS011;21680;52.400;16.920;2023-12-28T09:32:42;8.60;;;4.60;;
35576;SDS011;21680;52.400;16.920;2023-12-28T09:35:08;9.30;;;4.30;;
35576;SDS011;21680;52.400;16.920;2023-12-28T09:37:33;12.90;;;4.90;;
35576;SDS011;21680;52.400;16.920;2023-12-28T09:39:58;15.10;;;5.20;;
35576;SDS011;21680;52.400;16.920;2023-12-28T09:42:29;10.90;;;4.60;;
35576;SDS011;21680;52.400;16.920;2023-12-28T09:45:01;10.00;;;4.70;;
35576;SDS011;21680;52.400;16.920;2023-12-28T09:47:28;12.30;;;4.80;;
35576;SDS011;21680;52.400;16.920;2023-12-28T09:49:54;11.80;;;5.20;;
35576;SDS011;21680;52.400;16.920;2023-12-28T09:52:19;10.20;;;4.70;;
35576;SDS011;21680;52.400;16.920;2023-12-28T09:54:45;11.60;;;5.00;;
35576;SDS011;21680;52.400;16.920;2023-12-28T09:57:10;12.00;;;5.40;;
35576;SDS011;21680;52.400;16.920;2023-12-28T09:59:36;14.30;;;5.60;;
35576;SDS011;21680;52.400;16.920;2023-12-28T10:02:04;9.10;;;4.80;;
35576;SDS011;21680;52.400;16.920;2023-12-28T10:04:29;13.50;;;5.20;;
35576;SDS011;21680;52.400;16.920;2023-12-28T10:06:56;13.60;;;5.30;;
35576;SDS011;21680;52.400;16.920;2023-12-28T10:09:23;16.10;;;6.00;;
35576;SDS011;21680;52.400;16.920;2023-12-28T10:11:51;15.20;;;5.90;;
35576;SDS011;21680;52.400;16.920;2023-12-28T10:14:18;13.60;;;5.60;;
35576;SDS011;21680;52.400;16.920;2023-12-28T10:16:45;12.40;;;5.20;;
35576;SDS011;21680;52.400;16.920;2023-12-28T10:19:11;13.00;;;4.70;;
35576;SDS011;21680;52.400;16.920;2023-12-28T10:21:42;11.10;;;4.80;;
35576;SDS011;21680;52.400;16.920;2023-12-28T10:24:09;12.50;;;6.20;;
35576;SDS011;21680;52.400;16.920;2023-12-28T10:26:35;17.70;;;6.70;;
35576;SDS011;21680;52.400;16.920;2023-12-28T10:29:01;9.60;;;4.80;;
35576;SDS011;21680;52.400;16.920;2023-12-28T10:31:31;11.30;;;4.70;;
35576;SDS011;21680;52.400;16.920;2023-12-28T10:33:59;11.50;;;5.00;;
35576;SDS011;21680;52.400;16.920;2023-12-28T10:36:28;9.50;;;4.30;;
35576;SDS011;21680;52.400;16.920;2023-12-28T10:38:53;7.90;;;4.20;;
35576;SDS011;21680;52.400;16.920;2023-12-28T10:41:19;8.50;;;3.90;;
35576;SDS011;21680;52.400;16.920;2023-12-28T10:43:54;16.30;;;8.20;;
35576;SDS011;21680;52.400;16.920;2023-12-28T10:46:27;20.70;;;13.60;;
35576;SDS011;21680;52.400;16.920;2023-12-28T10:49:02;31.90;;;19.50;;
35576;SDS011;21680;52.400;16.920;2023-12-28T10:51:31;19.40;;;13.10;;
35576;SDS011;21680;52.400;16.920;2023-12-28T10:56:36;17.60;;;10.40;;
35576;SDS011;21680;52.400;16.920;2023-12-28T10:59:14;20.00;;;9.00;;
35576;SDS011;21680;52.400;16.920;2023-12-28T11:01:47;22.10;;;8.70;;
35576;SDS011;21680;52.400;16.920;2023-12-28T11:06:56;12.90;;;5.70;;
35576;SDS011;21680;52.400;16.920;2023-12-28T11:09:26;13.10;;;4.60;;
35576;SDS011;21680;52.400;16.920;2023-12-28T11:12:03;10.50;;;4.80;;
35576;SDS011;21680;52.400;16.920;2023-12-28T11:17:00;9.70;;;4.00;;
35576;SDS011;21680;52.400;16.920;2023-12-28T11:19:26;10.00;;;4.00;;
35576;SDS011;21680;52.400;16.920;2023-12-28T11:21:53;11.30;;;4.80;;
35576;SDS011;21680;52.400;16.920;2023-12-28T11:24:21;11.10;;;5.30;;
35576;SDS011;21680;52.400;16.920;2023-12-28T11:26:53;7.00;;;4.00;;
35576;SDS011;21680;52.400;16.920;2023-12-28T11:29:20;9.70;;;4.30;;
35576;SDS011;21680;52.400;16.920;2023-12-28T11:31:54;12.30;;;4.70;;
35576;SDS011;21680;52.400;16.920;2023-12-28T11:34:29;11.50;;;4.70;;
35576;SDS011;21680;52.400;16.920;2023-12-28T11:36:55;9.30;;;4.30;;
35576;SDS011;21680;52.400;16.920;2023-12-28T11:39:35;9.20;;;4.30;;
35576;SDS011;21680;52.400;16.920;2023-12-28T11:42:02;8.20;;;4.10;;
35576;SDS011;21680;52.400;16.920;2023-12-28T11:44:53;10.40;;;4.70;;
35576;SDS011;21680;52.400;16.920;2023-12-28T11:47:25;9.50;;;4.50;;
35576;SDS011;21680;52.400;16.920;2023-12-28T11:49:54;10.00;;;4.80;;
35576;SDS011;21680;52.400;16.920;2023-12-28T11:54:52;10.30;;;4.60;;
35576;SDS011;21680;52.400;16.920;2023-12-28T11:57:18;10.20;;;5.00;;
35576;SDS011;21680;52.400;16.920;2023-12-28T11:59:43;14.40;;;5.80;;
35576;SDS011;21680;52.400;16.920;2023-12-28T12:02:09;12.40;;;5.70;;
35576;SDS011;21680;52.400;16.920;2023-12-28T12:04:36;13.00;;;5.10;;
35576;SDS011;21680;52.400;16.920;2023-12-28T12:07:02;12.30;;;5.50;;
35576;SDS011;21680;52.400;16.920;2023-12-28T12:09:30;10.70;;;5.30;;
35576;SDS011;21680;52.400;16.920;2023-12-28T12:12:02;14.50;;;6.40;;
35576;SDS011;21680;52.400;16.920;2023-12-28T12:14:29;12.20;;;4.90;;
35576;SDS011;21680;52.400;16.920;2023-12-28T12:16:56;16.00;;;5.80;;
35576;SDS011;21680;52.400;16.920;2023-12-28T12:19:23;13.00;;;5.10;;
35576;SDS011;21680;52.400;16.920;2023-12-28T12:21:56;11.90;;;5.40;;
35576;SDS011;21680;52.400;16.920;2023-12-28T12:24:22;11.30;;;4.90;;
35576;SDS011;21680;52.400;16.920;2023-12-28T12:26:51;11.50;;;5.50;;
35576;SDS011;21680;52.400;16.920;2023-12-28T12:29:17;13.10;;;5.80;;
35576;SDS011;21680;52.400;16.920;2023-12-28T12:31:46;15.10;;;6.00;;
35576;SDS011;21680;52.400;16.920;2023-12-28T12:34:15;16.00;;;5.80;;
35576;SDS011;21680;52.400;16.920;2023-12-28T12:36:42;15.90;;;6.30;;
35576;SDS011;21680;52.400;16.920;2023-12-28T12:39:12;13.60;;;6.50;;
35576;SDS011;21680;52.400;16.920;2023-12-28T12:41:38;14.30;;;5.80;;
35576;SDS011;21680;52.400;16.920;2023-12-28T12:44:04;16.60;;;5.70;;
35576;SDS011;21680;52.400;16.920;2023-12-28T12:46:30;16.30;;;5.70;;
35576;SDS011;21680;52.400;16.920;2023-12-28T12:48:59;15.00;;;7.30;;
35576;SDS011;21680;52.400;16.920;2023-12-28T12:51:27;13.00;;;5.50;;
35576;SDS011;21680;52.400;16.920;2023-12-28T12:53:56;10.10;;;4.80;;
35576;SDS011;21680;52.400;16.920;2023-12-28T12:56:23;12.80;;;6.20;;
35576;SDS011;21680;52.400;16.920;2023-12-28T12:58:49;9.40;;;4.90;;
35576;SDS011;21680;52.400;16.920;2023-12-28T13:01:14;10.80;;;5.00;;
35576;SDS011;21680;52.400;16.920;2023-12-28T13:03:39;9.60;;;4.40;;
35576;SDS011;21680;52.400;16.920;2023-12-28T13:06:05;12.80;;;5.20;;
35576;SDS011;21680;52.400;16.920;2023-12-28T13:08:30;14.80;;;5.90;;
35576;SDS011;21680;52.400;16.920;2023-12-28T13:10:55;11.10;;;4.90;;
35576;SDS011;21680;52.400;16.920;2023-12-28T13:13:20;9.30;;;4.60;;
35576;SDS011;21680;52.400;16.920;2023-12-28T13:15:46;12.40;;;4.70;;
35576;SDS011;21680;52.400;16.920;2023-12-28T13:18:11;12.00;;;5.10;;
35576;SDS011;21680;52.400;16.920;2023-12-28T13:20:37;11.70;;;4.70;;
35576;SDS011;21680;52.400;16.920;2023-12-28T13:23:03;12.00;;;5.50;;
35576;SDS011;21680;52.400;16.920;2023-12-28T13:25:28;10.60;;;4.50;;
35576;SDS011;21680;52.400;16.920;2023-12-28T13:27:53;14.10;;;5.30;;
35576;SDS011;21680;52.400;16.920;2023-12-28T13:30:18;12.40;;;4.70;;
35576;SDS011;21680;52.400;16.920;2023-12-28T13:32:44;10.20;;;4.70;;
35576;SDS011;21680;52.400;16.920;2023-12-28T13:35:09;11.60;;;4.90;;
35576;SDS011;21680;52.400;16.920;2023-12-28T13:37:34;12.60;;;5.20;;
35576;SDS011;21680;52.400;16.920;2023-12-28T13:39:59;15.40;;;5.20;;
35576;SDS011;21680;52.400;16.920;2023-12-28T13:42:25;10.50;;;5.00;;
35576;SDS011;21680;52.400;16.920;2023-12-28T13:44:50;10.20;;;4.80;;
35576;SDS011;21680;52.400;16.920;2023-12-28T13:47:15;11.60;;;6.10;;
35576;SDS011;21680;52.400;16.920;2023-12-28T13:49:40;11.40;;;4.90;;
35576;SDS011;21680;52.400;16.920;2023-12-28T13:52:06;11.10;;;4.90;;
35576;SDS011;21680;52.400;16.920;2023-12-28T13:54:32;11.10;;;4.40;;
35576;SDS011;21680;52.400;16.920;2023-12-28T13:56:58;9.60;;;4.70;;
35576;SDS011;21680;52.400;16.920;2023-12-28T13:59:24;11.30;;;5.00;;
35576;SDS011;21680;52.400;16.920;2023-12-28T14:01:50;10.00;;;4.60;;
35576;SDS011;21680;52.400;16.920;2023-12-28T14:04:15;16.40;;;5.60;;
35576;SDS011;21680;52.400;16.920;2023-12-28T14:06:40;10.90;;;4.60;;
35576;SDS011;21680;52.400;16.920;2023-12-28T14:09:06;20.00;;;5.60;;
35576;SDS011;21680;52.400;16.920;2023-12-28T14:11:31;9.80;;;4.60;;
35576;SDS011;21680;52.400;16.920;2023-12-28T14:13:56;11.10;;;4.90;;
35576;SDS011;21680;52.400;16.920;2023-12-28T14:16:22;10.10;;;4.60;;
35576;SDS011;21680;52.400;16.920;2023-12-28T14:18:47;9.00;;;4.50;;
35576;SDS011;21680;52.400;16.920;2023-12-28T14:21:14;9.70;;;4.40;;
35576;SDS011;21680;52.400;16.920;2023-12-28T14:23:40;15.90;;;4.60;;
35576;SDS011;21680;52.400;16.920;2023-12-28T14:26:09;11.10;;;4.90;;
35576;SDS011;21680;52.400;16.920;2023-12-28T14:28:38;12.20;;;4.90;;